Mc Keesport, Pennsylvania
Current Conditions -  °F | °C
As of 8:05 PM on Monday 26 Jan 2015 (Local Time) from KAGC Reporting Station
Light Snow Light Snow  
Wind Chill: 14°   Ceiling: 1000
Heat Index: 23°   Visibility: 3mi
Dew Point: 18°   Wind: 8mph
Humidity: 81%   Direction: 320°NW
Pressure: 29.8"   Gusts: NA
Location:  40.4344°N, 80.0248°W
Report Text: KAGC 270105Z 32007KT 3SM -SN BKN010 OVC014 M05/M08 A2980 RMK AO2 CIG 008V013 P0000 T10501078
Loading
Personal Weather Stations






























Interactive Weather Map New forecast layout! Learn more

10-Day Weather Forecast

Advertisements
Track Severe Weather on mobile